Time;durP1;ratioP1;P1;durP2;ratioP2;P2;SDS_P1;SDS_P2;PMS_P1;PMS_P2;Temp;Humidity;BMP_temperature;BMP_pressure;BME280_temperature;BME280_humidity;BME280_pressure;Samples;Min_cycle;Max_cycle;Signal;HPM_P1;HPM_P2
2021/09/09 00:01:13;;;;;;;17.63;10.57;;;;;;;;;;5037217;28;20278;-67
2021/09/09 00:03:38;;;;;;;20.03;10.27;;;;;;;;;;5043518;28;20306;-65
2021/09/09 00:06:03;;;;;;;16.33;10.77;;;;;;;;;;5043823;28;20275;-66
2021/09/09 00:08:29;;;;;;;20.67;10.27;;;;;;;;;;5042682;28;20272;-65
2021/09/09 00:10:54;;;;;;;15.75;9.98;;;;;;;;;;5042415;28;20283;-66
2021/09/09 00:13:19;;;;;;;15.55;9.98;;;;;;;;;;5045302;28;20040;-66
2021/09/09 00:15:45;;;;;;;17.67;10.68;;;;;;;;;;5040956;28;20026;-66
2021/09/09 00:18:10;;;;;;;14.20;9.40;;;;;;;;;;5041476;28;20108;-66
2021/09/09 00:20:36;;;;;;;21.17;11.45;;;;;;;;;;5037996;28;20029;-66
2021/09/09 00:23:01;;;;;;;18.20;9.90;;;;;;;;;;5035316;28;20033;-66
2021/09/09 00:25:26;;;;;;;19.10;10.32;;;;;;;;;;5036978;28;20048;-65
2021/09/09 00:27:51;;;;;;;17.25;9.32;;;;;;;;;;5041946;28;20022;-67
2021/09/09 00:30:17;;;;;;;15.00;9.60;;;;;;;;;;5043375;28;20028;-65
2021/09/09 00:32:42;;;;;;;14.52;9.88;;;;;;;;;;5042602;28;20736;-66
2021/09/09 00:35:07;;;;;;;19.40;10.07;;;;;;;;;;5039014;28;20049;-65
2021/09/09 00:37:32;;;;;;;15.15;9.60;;;;;;;;;;5047426;28;20465;-66
2021/09/09 00:39:57;;;;;;;17.67;9.73;;;;;;;;;;5041558;28;20049;-65
2021/09/09 00:42:23;;;;;;;15.33;9.30;;;;;;;;;;5041121;28;20263;-65
2021/09/09 00:44:48;;;;;;;15.90;8.73;;;;;;;;;;5045096;28;20620;-65
2021/09/09 00:47:13;;;;;;;18.33;9.70;;;;;;;;;;5049487;28;20294;-65
2021/09/09 00:49:40;;;;;;;15.87;8.90;;;;;;;;;;5041160;28;20028;-67
2021/09/09 00:52:06;;;;;;;17.20;10.23;;;;;;;;;;5037377;28;20641;-65
2021/09/09 00:54:31;;;;;;;19.65;9.88;;;;;;;;;;5036775;28;20028;-65
2021/09/09 00:56:57;;;;;;;16.58;9.82;;;;;;;;;;5039989;28;20017;-65
2021/09/09 00:59:22;;;;;;;17.67;9.98;;;;;;;;;;5036461;28;20029;-66
2021/09/09 01:01:47;;;;;;;15.27;10.27;;;;;;;;;;5040439;28;20028;-66
2021/09/09 01:04:13;;;;;;;19.77;10.30;;;;;;;;;;5044610;28;20029;-66
2021/09/09 01:06:38;;;;;;;18.13;9.55;;;;;;;;;;5040717;28;20278;-66
2021/09/09 01:09:04;;;;;;;15.57;9.43;;;;;;;;;;5039647;28;20049;-65
2021/09/09 01:11:29;;;;;;;15.88;9.63;;;;;;;;;;5038537;28;20045;-66
2021/09/09 01:14:03;;;;;;;19.85;10.27;;;;;;;;;;5038158;28;20021;-65
2021/09/09 01:16:28;;;;;;;16.55;10.02;;;;;;;;;;5033793;28;20068;-66
2021/09/09 01:18:54;;;;;;;16.23;10.03;;;;;;;;;;5040180;28;20466;-66
2021/09/09 01:21:19;;;;;;;15.63;9.03;;;;;;;;;;5042697;28;20294;-65
2021/09/09 01:23:47;;;;;;;17.90;10.20;;;;;;;;;;5039050;28;20355;-67
2021/09/09 01:26:12;;;;;;;20.27;9.95;;;;;;;;;;5040634;28;20095;-66
2021/09/09 01:28:37;;;;;;;16.30;9.77;;;;;;;;;;5042240;28;20025;-65
2021/09/09 01:31:03;;;;;;;15.13;9.13;;;;;;;;;;5041778;28;20772;-66
2021/09/09 01:33:28;;;;;;;16.93;10.60;;;;;;;;;;5040024;28;20319;-67
2021/09/09 01:35:53;;;;;;;16.93;10.60;;;;;;;;;;5039586;28;20344;-66
2021/09/09 01:38:22;;;;;;;15.57;9.90;;;;;;;;;;5037866;28;20272;-66
2021/09/09 01:40:48;;;;;;;16.13;10.65;;;;;;;;;;5040045;28;20303;-66
2021/09/09 01:43:13;;;;;;;16.90;10.17;;;;;;;;;;5043435;28;20028;-66
2021/09/09 01:45:38;;;;;;;17.60;9.98;;;;;;;;;;5042856;28;20693;-65
2021/09/09 01:48:03;;;;;;;16.93;9.57;;;;;;;;;;5039462;28;20566;-65
2021/09/09 01:50:29;;;;;;;19.40;10.55;;;;;;;;;;5038019;28;20275;-66
2021/09/09 01:52:54;;;;;;;16.27;9.10;;;;;;;;;;5041678;28;20040;-65
2021/09/09 01:55:19;;;;;;;16.95;9.60;;;;;;;;;;5042346;28;20025;-66
2021/09/09 01:57:44;;;;;;;21.38;10.00;;;;;;;;;;5040960;28;20028;-65
2021/09/09 02:00:10;;;;;;;15.18;9.27;;;;;;;;;;5034660;28;20385;-66
2021/09/09 02:02:35;;;;;;;16.27;9.40;;;;;;;;;;5045308;28;20035;-66
2021/09/09 02:05:00;;;;;;;19.60;10.20;;;;;;;;;;5044621;28;20468;-65
2021/09/09 02:07:25;;;;;;;19.80;9.93;;;;;;;;;;5048156;28;20287;-67
2021/09/09 02:09:51;;;;;;;18.27;9.40;;;;;;;;;;5048900;28;20355;-65
2021/09/09 02:12:16;;;;;;;16.53;9.67;;;;;;;;;;5041441;28;20302;-65
2021/09/09 02:14:41;;;;;;;14.97;9.13;;;;;;;;;;5048007;28;20292;-65
2021/09/09 02:17:07;;;;;;;16.90;9.70;;;;;;;;;;5048551;28;20314;-66
2021/09/09 02:19:33;;;;;;;18.35;9.75;;;;;;;;;;5052376;28;20067;-66
2021/09/09 02:21:58;;;;;;;18.40;10.00;;;;;;;;;;5051240;28;20039;-65
2021/09/09 02:24:23;;;;;;;16.80;9.18;;;;;;;;;;5044656;28;20024;-66
2021/09/09 02:26:49;;;;;;;27.17;10.43;;;;;;;;;;5052575;28;20037;-65
2021/09/09 02:29:14;;;;;;;17.75;9.40;;;;;;;;;;5043859;28;20328;-66
2021/09/09 02:31:39;;;;;;;16.30;9.53;;;;;;;;;;5039904;28;20463;-66
2021/09/09 02:34:04;;;;;;;17.80;9.70;;;;;;;;;;5041695;28;20287;-67
2021/09/09 02:36:32;;;;;;;16.08;9.70;;;;;;;;;;5039446;28;20299;-66
2021/09/09 02:38:57;;;;;;;17.88;10.35;;;;;;;;;;5042762;28;20013;-67
2021/09/09 02:41:22;;;;;;;22.63;9.82;;;;;;;;;;5043936;28;20071;-66
2021/09/09 02:43:47;;;;;;;16.13;9.63;;;;;;;;;;5044428;28;20026;-67
2021/09/09 02:46:13;;;;;;;21.13;9.20;;;;;;;;;;5040966;28;20303;-67
2021/09/09 02:48:38;;;;;;;18.25;9.35;;;;;;;;;;5039976;28;20272;-67
2021/09/09 02:51:03;;;;;;;16.63;8.98;;;;;;;;;;5044735;28;20055;-66
2021/09/09 02:53:28;;;;;;;15.67;9.83;;;;;;;;;;5044997;28;20021;-67
2021/09/09 02:55:53;;;;;;;18.48;9.82;;;;;;;;;;5046191;28;20295;-66
2021/09/09 02:58:19;;;;;;;14.38;9.15;;;;;;;;;;5043886;28;20025;-67
2021/09/09 03:00:44;;;;;;;16.20;9.80;;;;;;;;;;5042180;28;20024;-66
2021/09/09 03:03:09;;;;;;;16.20;9.87;;;;;;;;;;5045448;28;20678;-66
2021/09/09 03:05:34;;;;;;;17.67;9.37;;;;;;;;;;5041933;28;20283;-66
2021/09/09 03:07:59;;;;;;;18.27;9.27;;;;;;;;;;5045145;28;20364;-67
2021/09/09 03:10:25;;;;;;;18.13;9.80;;;;;;;;;;5040203;28;20018;-65
2021/09/09 03:12:50;;;;;;;19.30;10.30;;;;;;;;;;5040366;28;20825;-67
2021/09/09 03:15:15;;;;;;;18.33;9.63;;;;;;;;;;5046083;28;20263;-68
2021/09/09 03:17:40;;;;;;;16.03;10.03;;;;;;;;;;5043994;28;20528;-67
2021/09/09 03:20:05;;;;;;;21.57;10.00;;;;;;;;;;5040705;28;20279;-66
2021/09/09 03:22:31;;;;;;;14.32;8.80;;;;;;;;;;5041821;28;20304;-66
2021/09/09 03:24:56;;;;;;;16.13;9.50;;;;;;;;;;5041286;28;20462;-65
2021/09/09 03:27:21;;;;;;;14.93;8.27;;;;;;;;;;5038288;28;20260;-67
2021/09/09 03:29:46;;;;;;;18.63;9.88;;;;;;;;;;5045541;28;20123;-66
2021/09/09 03:32:12;;;;;;;18.67;9.38;;;;;;;;;;5045697;28;20043;-67
2021/09/09 03:34:37;;;;;;;16.00;9.73;;;;;;;;;;5044507;28;20064;-67
2021/09/09 03:37:02;;;;;;;20.52;9.57;;;;;;;;;;5045707;28;20271;-66
2021/09/09 03:39:27;;;;;;;14.95;9.10;;;;;;;;;;5041529;28;20017;-66
2021/09/09 03:41:52;;;;;;;20.73;10.85;;;;;;;;;;5048110;28;20040;-66
2021/09/09 03:44:18;;;;;;;15.77;9.73;;;;;;;;;;5041793;28;20036;-66
2021/09/09 03:46:43;;;;;;;20.50;10.70;;;;;;;;;;5040632;28;20302;-66
2021/09/09 03:49:08;;;;;;;19.30;10.23;;;;;;;;;;5039057;28;20275;-66
2021/09/09 03:51:33;;;;;;;16.80;10.45;;;;;;;;;;5045645;28;20767;-67
2021/09/09 03:53:58;;;;;;;17.97;10.10;;;;;;;;;;5046854;28;20649;-66
2021/09/09 03:56:24;;;;;;;18.13;10.13;;;;;;;;;;5044082;28;20270;-66
2021/09/09 03:58:49;;;;;;;16.83;10.07;;;;;;;;;;5039208;28;20558;-66
2021/09/09 04:01:14;;;;;;;18.67;11.47;;;;;;;;;;5039631;28;20275;-66
2021/09/09 04:03:39;;;;;;;19.87;10.13;;;;;;;;;;5044347;28;20322;-67
2021/09/09 04:06:04;;;;;;;13.13;9.47;;;;;;;;;;5045011;28;20806;-66
2021/09/09 04:08:29;;;;;;;24.43;10.87;;;;;;;;;;5044957;28;20278;-66
2021/09/09 04:10:55;;;;;;;18.43;10.43;;;;;;;;;;5047645;28;20283;-67
2021/09/09 04:13:20;;;;;;;20.03;11.53;;;;;;;;;;5044729;28;20716;-66
2021/09/09 04:15:45;;;;;;;18.20;10.60;;;;;;;;;;5039611;28;20318;-66
2021/09/09 04:18:10;;;;;;;13.77;9.77;;;;;;;;;;5045859;28;20264;-65
2021/09/09 04:20:35;;;;;;;17.30;11.13;;;;;;;;;;5039899;28;20263;-66
2021/09/09 04:23:01;;;;;;;20.65;10.75;;;;;;;;;;5042541;28;20274;-66
2021/09/09 04:25:26;;;;;;;17.40;10.57;;;;;;;;;;5043673;28;20025;-65
2021/09/09 04:27:51;;;;;;;20.50;10.40;;;;;;;;;;5042731;28;20055;-66
2021/09/09 04:30:16;;;;;;;22.15;11.00;;;;;;;;;;5043362;28;20746;-68
2021/09/09 04:32:41;;;;;;;18.00;10.60;;;;;;;;;;5040055;28;20044;-65
2021/09/09 04:35:07;;;;;;;16.85;10.40;;;;;;;;;;5042434;28;20028;-67
2021/09/09 04:37:34;;;;;;;32.70;11.20;;;;;;;;;;5039961;28;20029;-66
2021/09/09 04:39:59;;;;;;;19.27;10.50;;;;;;;;;;5044660;28;20354;-66
2021/09/09 04:42:24;;;;;;;19.97;10.67;;;;;;;;;;5047916;28;20025;-66
2021/09/09 04:44:50;;;;;;;16.10;9.68;;;;;;;;;;5038706;28;20274;-66
2021/09/09 04:47:15;;;;;;;18.65;9.98;;;;;;;;;;5042098;28;20036;-66
2021/09/09 04:49:40;;;;;;;18.63;10.37;;;;;;;;;;5039340;28;20040;-67
2021/09/09 04:52:05;;;;;;;15.60;9.55;;;;;;;;;;5044164;28;20279;-66
2021/09/09 04:54:30;;;;;;;18.17;10.77;;;;;;;;;;5043328;28;20090;-67
2021/09/09 04:56:56;;;;;;;16.80;9.97;;;;;;;;;;5036423;28;20432;-66
2021/09/09 04:59:21;;;;;;;20.47;10.77;;;;;;;;;;5042641;28;20259;-66
2021/09/09 05:01:46;;;;;;;17.58;10.73;;;;;;;;;;5037885;28;20341;-65
2021/09/09 05:04:11;;;;;;;19.03;11.20;;;;;;;;;;5037047;28;20017;-66
2021/09/09 05:06:36;;;;;;;21.70;10.40;;;;;;;;;;5045971;28;20283;-66
2021/09/09 05:09:02;;;;;;;17.80;10.47;;;;;;;;;;5044121;28;20367;-66
2021/09/09 05:11:27;;;;;;;18.02;11.55;;;;;;;;;;5042673;28;20786;-66
2021/09/09 05:13:52;;;;;;;18.93;10.47;;;;;;;;;;5041386;28;20024;-67
2021/09/09 05:16:17;;;;;;;19.13;10.82;;;;;;;;;;5043131;28;20333;-65
2021/09/09 05:18:42;;;;;;;16.25;10.80;;;;;;;;;;5034012;28;20048;-65
2021/09/09 05:21:08;;;;;;;16.90;10.55;;;;;;;;;;5035288;28;20025;-65
2021/09/09 05:23:33;;;;;;;18.25;11.43;;;;;;;;;;5043954;28;20038;-65
2021/09/09 05:25:58;;;;;;;19.65;9.95;;;;;;;;;;5049646;28;20051;-65
2021/09/09 05:28:24;;;;;;;16.90;10.17;;;;;;;;;;5041392;28;20024;-65
2021/09/09 05:30:49;;;;;;;17.08;10.90;;;;;;;;;;5040901;28;20721;-65
2021/09/09 05:33:14;;;;;;;18.40;9.83;;;;;;;;;;5041427;28;20025;-67
2021/09/09 05:35:45;;;;;;;18.58;10.68;;;;;;;;;;5037376;28;20758;-67
2021/09/09 05:38:10;;;;;;;18.33;10.00;;;;;;;;;;5047095;28;20067;-66
2021/09/09 05:40:35;;;;;;;16.75;10.38;;;;;;;;;;5046633;28;20021;-66
2021/09/09 05:43:00;;;;;;;23.00;9.63;;;;;;;;;;5046080;28;20013;-66
2021/09/09 05:45:26;;;;;;;21.33;10.90;;;;;;;;;;5042331;28;20029;-66
2021/09/09 05:47:51;;;;;;;24.37;10.33;;;;;;;;;;5046358;28;20268;-66
2021/09/09 05:50:17;;;;;;;20.00;10.07;;;;;;;;;;5039745;28;20358;-66
2021/09/09 05:52:43;;;;;;;17.75;10.05;;;;;;;;;;5041823;28;20037;-66
2021/09/09 05:55:08;;;;;;;27.85;11.32;;;;;;;;;;5047072;28;20051;-66
2021/09/09 05:57:33;;;;;;;28.83;12.07;;;;;;;;;;5047750;28;20681;-66
2021/09/09 05:59:59;;;;;;;20.90;11.52;;;;;;;;;;5044261;28;20268;-66
2021/09/09 06:02:27;;;;;;;24.63;12.50;;;;;;;;;;5041396;28;20052;-67
2021/09/09 06:04:55;;;;;;;24.52;11.43;;;;;;;;;;5041519;28;20029;-66
2021/09/09 06:07:20;;;;;;;22.48;11.40;;;;;;;;;;5048338;28;20021;-66
2021/09/09 06:09:45;;;;;;;23.58;11.57;;;;;;;;;;5046330;28;20090;-65
2021/09/09 06:12:10;;;;;;;21.23;11.48;;;;;;;;;;5042525;28;20024;-66
2021/09/09 06:14:36;;;;;;;21.05;12.00;;;;;;;;;;5046899;28;20025;-66
2021/09/09 06:17:01;;;;;;;21.35;11.82;;;;;;;;;;5048843;28;20021;-67
2021/09/09 06:19:26;;;;;;;22.63;11.40;;;;;;;;;;5044795;28;20025;-66
2021/09/09 06:21:52;;;;;;;17.40;10.37;;;;;;;;;;5042541;28;20067;-67
2021/09/09 06:24:17;;;;;;;18.40;11.27;;;;;;;;;;5044565;28;20264;-67
2021/09/09 06:26:42;;;;;;;17.92;10.07;;;;;;;;;;5045030;28;20033;-66
2021/09/09 06:29:08;;;;;;;17.33;9.63;;;;;;;;;;5046438;28;20437;-66
2021/09/09 06:31:33;;;;;;;15.93;10.10;;;;;;;;;;5046956;28;20028;-66
2021/09/09 06:33:58;;;;;;;18.30;10.57;;;;;;;;;;5051247;28;20262;-67
2021/09/09 06:36:23;;;;;;;20.87;10.53;;;;;;;;;;5051436;28;20608;-67
2021/09/09 06:38:48;;;;;;;18.33;10.17;;;;;;;;;;5052783;28;20255;-66
2021/09/09 06:41:13;;;;;;;16.90;8.40;;;;;;;;;;5051748;28;20263;-67
2021/09/09 06:43:39;;;;;;;15.50;9.50;;;;;;;;;;5051636;28;20159;-67
2021/09/09 06:46:05;;;;;;;15.43;9.70;;;;;;;;;;5051983;28;20268;-66
2021/09/09 06:48:31;;;;;;;21.40;8.73;;;;;;;;;;5051301;28;20091;-66
2021/09/09 06:50:56;;;;;;;16.42;7.90;;;;;;;;;;5051872;28;20650;-66
2021/09/09 06:53:21;;;;;;;12.65;8.85;;;;;;;;;;5052213;28;20100;-66
2021/09/09 06:55:46;;;;;;;11.17;8.27;;;;;;;;;;5051662;28;20465;-66
2021/09/09 06:58:12;;;;;;;15.23;9.47;;;;;;;;;;5052332;28;20295;-67
2021/09/09 07:00:37;;;;;;;13.40;8.97;;;;;;;;;;5051941;28;20351;-66
2021/09/09 07:03:02;;;;;;;12.70;8.33;;;;;;;;;;5051690;28;20351;-66
2021/09/09 07:05:27;;;;;;;17.90;9.00;;;;;;;;;;5039611;28;20355;-66
2021/09/09 07:07:52;;;;;;;14.20;7.97;;;;;;;;;;5049637;28;20021;-66
2021/09/09 07:10:18;;;;;;;10.40;7.70;;;;;;;;;;5051337;28;20028;-66
2021/09/09 07:12:43;;;;;;;16.10;8.88;;;;;;;;;;5051120;28;20496;-66
2021/09/09 07:15:09;;;;;;;11.77;8.23;;;;;;;;;;5051880;28;20358;-66
2021/09/09 07:17:35;;;;;;;12.57;8.32;;;;;;;;;;5050818;28;20529;-67
2021/09/09 07:20:01;;;;;;;10.65;7.20;;;;;;;;;;5050469;28;20032;-66
2021/09/09 07:22:26;;;;;;;44.83;10.13;;;;;;;;;;5050987;28;20093;-66
2021/09/09 07:24:51;;;;;;;12.10;7.50;;;;;;;;;;5051110;28;20250;-66
2021/09/09 07:27:16;;;;;;;13.70;7.30;;;;;;;;;;5051500;28;20343;-68
2021/09/09 07:29:41;;;;;;;14.65;7.82;;;;;;;;;;5051424;28;20486;-66
2021/09/09 07:32:07;;;;;;;13.10;7.93;;;;;;;;;;5051255;28;20021;-67
2021/09/09 07:34:32;;;;;;;11.38;7.13;;;;;;;;;;5051840;28;20259;-66
2021/09/09 07:36:57;;;;;;;13.67;7.47;;;;;;;;;;5050775;28;20017;-66
2021/09/09 07:39:23;;;;;;;16.38;7.50;;;;;;;;;;5051643;28;20047;-66
2021/09/09 07:41:48;;;;;;;15.55;7.07;;;;;;;;;;5051459;28;20039;-66
2021/09/09 07:44:13;;;;;;;10.30;6.97;;;;;;;;;;5051100;28;20025;-67
2021/09/09 07:46:38;;;;;;;9.47;6.57;;;;;;;;;;5051522;28;20021;-66
2021/09/09 07:49:04;;;;;;;14.23;8.30;;;;;;;;;;5050504;28;20017;-68
2021/09/09 07:51:29;;;;;;;12.07;7.13;;;;;;;;;;5050952;28;20021;-66
2021/09/09 07:53:55;;;;;;;9.90;6.53;;;;;;;;;;5050930;28;20025;-67
2021/09/09 07:56:20;;;;;;;12.57;8.13;;;;;;;;;;5050060;28;20264;-68
2021/09/09 07:58:48;;;;;;;10.60;7.00;;;;;;;;;;5050716;28;20025;-67
2021/09/09 08:01:15;;;;;;;13.75;7.57;;;;;;;;;;5050032;28;20047;-67
2021/09/09 08:03:40;;;;;;;13.70;7.15;;;;;;;;;;5050457;28;20112;-67
2021/09/09 08:06:05;;;;;;;11.50;6.93;;;;;;;;;;5050267;28;20096;-67
2021/09/09 08:08:30;;;;;;;12.50;7.80;;;;;;;;;;5048449;28;20360;-66
2021/09/09 08:10:55;;;;;;;11.73;7.17;;;;;;;;;;5045408;28;20029;-67
2021/09/09 08:13:21;;;;;;;10.70;6.63;;;;;;;;;;5049646;28;20385;-66
2021/09/09 08:15:46;;;;;;;12.20;7.23;;;;;;;;;;5050431;28;20067;-68
2021/09/09 08:18:11;;;;;;;10.70;6.90;;;;;;;;;;5051127;28;20020;-67
2021/09/09 08:20:36;;;;;;;12.68;6.82;;;;;;;;;;5050832;28;20466;-68
2021/09/09 08:23:01;;;;;;;15.10;6.40;;;;;;;;;;5049897;28;20045;-67
2021/09/09 08:25:27;;;;;;;8.27;6.03;;;;;;;;;;5050009;28;20092;-69
2021/09/09 08:27:52;;;;;;;11.80;8.10;;;;;;;;;;5049725;28;20481;-66
2021/09/09 08:30:17;;;;;;;11.03;7.80;;;;;;;;;;5050615;28;20025;-68
2021/09/09 08:32:42;;;;;;;16.55;7.65;;;;;;;;;;5049331;28;20028;-68
2021/09/09 08:35:08;;;;;;;5.18;3.35;;;;;;;;;;5039167;28;20017;-69
2021/09/09 08:37:33;;;;;;;12.50;6.70;;;;;;;;;;5047809;28;20059;-68
2021/09/09 08:39:59;;;;;;;10.53;5.93;;;;;;;;;;5043793;28;20486;-68
2021/09/09 08:42:24;;;;;;;10.32;7.43;;;;;;;;;;5036961;28;20295;-68
2021/09/09 08:44:50;;;;;;;13.15;7.03;;;;;;;;;;5050623;28;20079;-69
2021/09/09 08:47:16;;;;;;;12.57;5.65;;;;;;;;;;5050432;28;20016;-68
2021/09/09 08:49:41;;;;;;;12.77;8.02;;;;;;;;;;5048819;28;20637;-68
2021/09/09 08:52:06;;;;;;;9.85;6.65;;;;;;;;;;5049943;28;20025;-68
2021/09/09 08:54:32;;;;;;;12.00;6.93;;;;;;;;;;5050281;28;20549;-68
2021/09/09 08:56:57;;;;;;;11.18;6.65;;;;;;;;;;5049385;28;20107;-69
2021/09/09 08:59:22;;;;;;;20.47;7.50;;;;;;;;;;5049484;28;20094;-68
2021/09/09 09:02:00;;;;;;;9.37;6.07;;;;;;;;;;5049495;28;20263;-68
2021/09/09 09:04:26;;;;;;;9.80;7.05;;;;;;;;;;5049363;28;20017;-67
2021/09/09 09:06:51;;;;;;;12.18;7.32;;;;;;;;;;5049651;28;20456;-69
2021/09/09 09:09:19;;;;;;;11.13;7.50;;;;;;;;;;5050103;28;20442;-67
2021/09/09 09:11:46;;;;;;;12.02;6.63;;;;;;;;;;5051871;28;20115;-66
2021/09/09 09:14:12;;;;;;;17.83;6.78;;;;;;;;;;5053140;28;20114;-68
2021/09/09 09:16:47;;;;;;;15.32;7.75;;;;;;;;;;5054054;28;20028;-68
2021/09/09 09:19:13;;;;;;;13.93;6.85;;;;;;;;;;5053384;28;20036;-67
2021/09/09 09:21:42;;;;;;;14.20;6.50;;;;;;;;;;5053954;28;20048;-67
2021/09/09 09:24:07;;;;;;;11.68;7.05;;;;;;;;;;5053667;28;20025;-69
2021/09/09 09:26:33;;;;;;;12.27;6.88;;;;;;;;;;5053470;28;20504;-68
2021/09/09 09:29:00;;;;;;;16.17;6.70;;;;;;;;;;5052150;28;20104;-67
2021/09/09 09:31:26;;;;;;;11.93;6.53;;;;;;;;;;5054280;28;20029;-68
2021/09/09 09:33:59;;;;;;;12.43;6.72;;;;;;;;;;5053441;28;20029;-69
2021/09/09 09:36:25;;;;;;;11.50;7.30;;;;;;;;;;5053773;28;20017;-69
2021/09/09 09:38:52;;;;;;;14.70;6.80;;;;;;;;;;5053511;28;20374;-68
2021/09/09 09:41:18;;;;;;;11.82;6.82;;;;;;;;;;5053255;28;20108;-66
2021/09/09 09:43:54;;;;;;;11.43;6.18;;;;;;;;;;5053136;28;20025;-67
2021/09/09 09:46:24;;;;;;;9.85;7.10;;;;;;;;;;5047760;28;20048;-67
2021/09/09 09:48:49;;;;;;;13.68;7.28;;;;;;;;;;5053321;28;20089;-68
2021/09/09 09:51:14;;;;;;;10.77;7.07;;;;;;;;;;5053239;28;20431;-68
2021/09/09 09:53:40;;;;;;;13.25;7.20;;;;;;;;;;5052951;28;20029;-67
2021/09/09 09:56:05;;;;;;;16.23;7.13;;;;;;;;;;5053034;28;20017;-69
2021/09/09 09:58:30;;;;;;;10.52;5.88;;;;;;;;;;5052212;28;20676;-67
2021/09/09 10:00:56;;;;;;;13.60;6.43;;;;;;;;;;5052954;28;20021;-68
2021/09/09 10:03:22;;;;;;;14.50;7.93;;;;;;;;;;5034547;28;20370;-68
2021/09/09 10:05:50;;;;;;;15.30;6.68;;;;;;;;;;5052599;28;20021;-67
2021/09/09 10:08:16;;;;;;;13.77;7.20;;;;;;;;;;5053233;28;20402;-69
2021/09/09 10:10:44;;;;;;;9.85;6.47;;;;;;;;;;5053160;28;20051;-68
2021/09/09 10:13:11;;;;;;;15.48;6.82;;;;;;;;;;5053437;28;20009;-69
2021/09/09 10:15:36;;;;;;;12.00;7.30;;;;;;;;;;5053131;28;20025;-68
2021/09/09 10:18:02;;;;;;;12.90;6.93;;;;;;;;;;5053357;28;20358;-69
2021/09/09 10:20:32;;;;;;;11.05;6.97;;;;;;;;;;5053057;28;20740;-68
2021/09/09 10:23:02;;;;;;;15.48;7.18;;;;;;;;;;5052277;28;20037;-68
2021/09/09 10:25:40;;;;;;;18.00;7.32;;;;;;;;;;5053011;28;20032;-69
2021/09/09 10:28:25;;;;;;;14.85;7.28;;;;;;;;;;5052755;28;20047;-68
2021/09/09 10:31:09;;;;;;;12.65;7.53;;;;;;;;;;5051788;28;20063;-69
2021/09/09 10:33:34;;;;;;;13.38;6.85;;;;;;;;;;5052596;28;20029;-69
2021/09/09 10:36:00;;;;;;;13.45;6.22;;;;;;;;;;5052179;28;20495;-68
2021/09/09 10:38:27;;;;;;;15.27;6.40;;;;;;;;;;5052528;28;20553;-67
2021/09/09 10:40:52;;;;;;;11.18;7.18;;;;;;;;;;5051792;28;20485;-69
2021/09/09 10:43:24;;;;;;;17.00;6.53;;;;;;;;;;5052628;28;20032;-69
2021/09/09 10:45:56;;;;;;;14.02;7.82;;;;;;;;;;5052168;28;20045;-67
2021/09/09 10:48:22;;;;;;;15.30;7.38;;;;;;;;;;5032875;28;20467;-67
2021/09/09 10:50:59;;;;;;;12.93;6.85;;;;;;;;;;5050106;28;20040;-68
2021/09/09 10:53:35;;;;;;;10.02;6.40;;;;;;;;;;5052042;28;20028;-68
2021/09/09 10:56:09;;;;;;;17.88;7.75;;;;;;;;;;5051927;28;20025;-67
2021/09/09 10:58:34;;;;;;;11.95;6.40;;;;;;;;;;5052641;28;20075;-68
2021/09/09 11:01:05;;;;;;;10.52;7.22;;;;;;;;;;5052012;28;20032;-67
2021/09/09 11:03:33;;;;;;;19.33;6.88;;;;;;;;;;5052336;28;20096;-68
2021/09/09 11:05:58;;;;;;;12.52;7.05;;;;;;;;;;5051823;28;20394;-67
2021/09/09 11:08:27;;;;;;;20.88;7.00;;;;;;;;;;5051794;28;20028;-68
2021/09/09 11:10:52;;;;;;;17.00;6.65;;;;;;;;;;5051123;28;20027;-68
2021/09/09 11:13:27;;;;;;;13.50;7.57;;;;;;;;;;5051809;28;20017;-68
2021/09/09 11:15:53;;;;;;;16.08;7.57;;;;;;;;;;5051619;28;20025;-68
2021/09/09 11:18:28;;;;;;;13.80;7.70;;;;;;;;;;5051621;28;20026;-69
2021/09/09 11:21:03;;;;;;;14.77;7.22;;;;;;;;;;5051731;28;20128;-68
2021/09/09 11:23:28;;;;;;;14.23;8.02;;;;;;;;;;5051497;28;20028;-68
2021/09/09 11:25:54;;;;;;;13.57;6.30;;;;;;;;;;5042482;28;20025;-68
2021/09/09 11:28:19;;;;;;;15.27;7.90;;;;;;;;;;5051585;28;20302;-68
2021/09/09 11:31:01;;;;;;;17.80;8.18;;;;;;;;;;5050756;28;20259;-67
2021/09/09 11:33:27;;;;;;;19.65;9.55;;;;;;;;;;5050396;28;20032;-67
2021/09/09 11:36:02;;;;;;;18.13;9.38;;;;;;;;;;5050816;28;20029;-67
2021/09/09 11:38:31;;;;;;;21.88;8.45;;;;;;;;;;5051550;28;20098;-67
2021/09/09 11:41:10;;;;;;;17.95;8.13;;;;;;;;;;5050945;28;20044;-67
2021/09/09 11:43:36;;;;;;;19.63;8.63;;;;;;;;;;5050750;28;20119;-67
2021/09/09 11:46:02;;;;;;;21.83;9.60;;;;;;;;;;5050954;28;20060;-67
2021/09/09 11:48:28;;;;;;;17.73;8.95;;;;;;;;;;5050594;28;20171;-67
2021/09/09 11:50:53;;;;;;;13.43;7.13;;;;;;;;;;5050026;28;20174;-68
2021/09/09 11:53:25;;;;;;;14.88;8.18;;;;;;;;;;5051106;28;20596;-67
2021/09/09 11:55:51;;;;;;;20.05;8.00;;;;;;;;;;5050837;28;20056;-67
2021/09/09 11:58:31;;;;;;;20.65;9.35;;;;;;;;;;5050748;28;20051;-68
2021/09/09 12:00:58;;;;;;;20.45;10.38;;;;;;;;;;5047479;28;20028;-68
2021/09/09 12:03:23;;;;;;;17.80;9.75;;;;;;;;;;5050236;28;20071;-68
2021/09/09 12:05:50;;;;;;;27.77;9.50;;;;;;;;;;5050012;28;20053;-68
2021/09/09 12:08:15;;;;;;;21.70;11.23;;;;;;;;;;5035196;28;20020;-67
2021/09/09 12:10:40;;;;;;;17.05;10.02;;;;;;;;;;5050174;28;20017;-68
2021/09/09 12:13:09;;;;;;;22.03;9.70;;;;;;;;;;5047565;28;20062;-67
2021/09/09 12:15:34;;;;;;;21.98;11.23;;;;;;;;;;5050913;28;20733;-67
2021/09/09 12:18:09;;;;;;;10.73;6.73;;;;;;;;;;5037841;28;20125;-68
2021/09/09 12:20:35;;;;;;;26.05;9.85;;;;;;;;;;5030639;28;20509;-68
2021/09/09 12:23:00;;;;;;;17.98;10.07;;;;;;;;;;5049211;28;20025;-67
2021/09/09 12:25:29;;;;;;;27.20;10.38;;;;;;;;;;5050353;28;20122;-68
2021/09/09 12:27:54;;;;;;;22.42;10.23;;;;;;;;;;5050877;28;20048;-68
2021/09/09 12:30:23;;;;;;;20.37;10.70;;;;;;;;;;5050460;28;20486;-67
2021/09/09 12:32:48;;;;;;;34.33;10.73;;;;;;;;;;5050275;28;20118;-67
2021/09/09 12:35:17;;;;;;;15.90;8.83;;;;;;;;;;5050246;28;20055;-67
2021/09/09 12:37:42;;;;;;;18.02;10.25;;;;;;;;;;5050596;28;20104;-68
2021/09/09 12:40:08;;;;;;;13.60;8.48;;;;;;;;;;5050113;28;20103;-67
2021/09/09 12:42:33;;;;;;;15.27;8.07;;;;;;;;;;5049841;28;20098;-67
2021/09/09 12:44:58;;;;;;;15.45;8.57;;;;;;;;;;5049842;28;20500;-68
2021/09/09 12:47:23;;;;;;;14.50;7.37;;;;;;;;;;5050389;28;20024;-67
2021/09/09 12:49:49;;;;;;;16.70;8.77;;;;;;;;;;5049977;28;20116;-67
2021/09/09 12:52:14;;;;;;;15.02;9.13;;;;;;;;;;5049503;28;20017;-67
2021/09/09 12:54:44;;;;;;;12.63;7.85;;;;;;;;;;5049832;28;20036;-67
2021/09/09 12:57:10;;;;;;;21.08;8.35;;;;;;;;;;5049707;28;20021;-67
2021/09/09 12:59:35;;;;;;;14.70;7.63;;;;;;;;;;5049807;28;20028;-67
2021/09/09 13:02:00;;;;;;;17.13;8.05;;;;;;;;;;5049844;28;20270;-67
2021/09/09 13:04:29;;;;;;;11.95;7.20;;;;;;;;;;5049414;28;20036;-67
2021/09/09 13:06:54;;;;;;;22.05;8.07;;;;;;;;;;5030497;28;20068;-67
2021/09/09 13:09:19;;;;;;;17.77;7.28;;;;;;;;;;5046179;28;20047;-68
2021/09/09 13:11:44;;;;;;;19.07;6.97;;;;;;;;;;5049776;28;20643;-67
2021/09/09 13:14:10;;;;;;;11.00;6.57;;;;;;;;;;5049341;28;20028;-67
2021/09/09 13:16:35;;;;;;;10.10;6.38;;;;;;;;;;5047938;28;20563;-67
2021/09/09 13:19:00;;;;;;;14.00;5.32;;;;;;;;;;5050105;28;20057;-66
2021/09/09 13:21:31;;;;;;;17.23;5.97;;;;;;;;;;5049918;28;20032;-67
2021/09/09 13:23:56;;;;;;;14.10;6.65;;;;;;;;;;5049468;28;20122;-67
2021/09/09 13:26:22;;;;;;;12.93;6.63;;;;;;;;;;5049666;28;20107;-68
2021/09/09 13:28:47;;;;;;;13.03;7.33;;;;;;;;;;5049428;28;20040;-67
2021/09/09 13:31:20;;;;;;;16.10;6.57;;;;;;;;;;5049699;28;20287;-68
2021/09/09 13:33:45;;;;;;;18.15;6.75;;;;;;;;;;5049391;28;20045;-67
2021/09/09 13:36:10;;;;;;;21.33;8.77;;;;;;;;;;5049872;28;20103;-68
2021/09/09 13:38:35;;;;;;;15.93;7.83;;;;;;;;;;5049579;28;20017;-67
2021/09/09 13:41:01;;;;;;;26.27;9.53;;;;;;;;;;5050139;28;20381;-67
2021/09/09 13:43:26;;;;;;;21.53;8.07;;;;;;;;;;5049718;28;20665;-67
2021/09/09 13:45:52;;;;;;;18.80;8.88;;;;;;;;;;5049643;28;20963;-68
2021/09/09 13:48:17;;;;;;;19.77;9.25;;;;;;;;;;5041677;28;20029;-68
2021/09/09 13:50:42;;;;;;;16.77;7.43;;;;;;;;;;5043356;28;20025;-67
2021/09/09 13:53:07;;;;;;;20.25;7.38;;;;;;;;;;5042259;28;20349;-68
2021/09/09 13:55:33;;;;;;;13.80;6.73;;;;;;;;;;5049548;28;20039;-68
2021/09/09 13:57:58;;;;;;;15.20;6.43;;;;;;;;;;5052403;28;20527;-67
2021/09/09 14:00:23;;;;;;;11.13;4.93;;;;;;;;;;5052911;28;20024;-67
2021/09/09 14:02:48;;;;;;;12.57;5.63;;;;;;;;;;5053141;28;20359;-68
2021/09/09 14:05:13;;;;;;;12.93;4.88;;;;;;;;;;5053042;28;20755;-68
2021/09/09 14:07:39;;;;;;;9.75;4.55;;;;;;;;;;5052984;28;20025;-68
2021/09/09 14:10:06;;;;;;;11.02;3.65;;;;;;;;;;5052911;28;20095;-67
2021/09/09 14:12:31;;;;;;;10.02;3.92;;;;;;;;;;5052371;28;20742;-67
2021/09/09 14:14:56;;;;;;;9.53;3.93;;;;;;;;;;5047734;28;20033;-68
2021/09/09 14:17:21;;;;;;;8.90;3.93;;;;;;;;;;5052603;28;20155;-67
2021/09/09 14:19:46;;;;;;;9.73;3.57;;;;;;;;;;5052961;28;20273;-67